sensor_id;sensor_type;location;lat;lon;timestamp;temperature;humidity
2603;DHT22;1311;47.966;7.958;2023-04-30T00:00:08;11.40;99.90
2603;DHT22;1311;47.966;7.958;2023-04-30T00:02:35;11.40;99.90
2603;DHT22;1311;47.966;7.958;2023-04-30T00:05:02;11.40;99.90
2603;DHT22;1311;47.966;7.958;2023-04-30T00:07:29;11.30;99.90
2603;DHT22;1311;47.966;7.958;2023-04-30T00:09:56;11.30;99.90
2603;DHT22;1311;47.966;7.958;2023-04-30T00:12:23;11.30;99.90
2603;DHT22;1311;47.966;7.958;2023-04-30T00:14:51;11.40;99.90
2603;DHT22;1311;47.966;7.958;2023-04-30T00:17:19;11.40;99.90
2603;DHT22;1311;47.966;7.958;2023-04-30T00:19:46;11.40;99.90
2603;DHT22;1311;47.966;7.958;2023-04-30T00:22:13;11.50;99.90
2603;DHT22;1311;47.966;7.958;2023-04-30T00:24:39;11.50;99.90
2603;DHT22;1311;47.966;7.958;2023-04-30T00:27:06;11.50;99.90
2603;DHT22;1311;47.966;7.958;2023-04-30T00:29:33;11.60;99.90
2603;DHT22;1311;47.966;7.958;2023-04-30T00:32:01;11.60;99.90
2603;DHT22;1311;47.966;7.958;2023-04-30T00:34:28;11.60;99.90
2603;DHT22;1311;47.966;7.958;2023-04-30T00:36:55;11.60;99.90
2603;DHT22;1311;47.966;7.958;2023-04-30T00:39:22;11.50;99.90
2603;DHT22;1311;47.966;7.958;2023-04-30T00:41:49;11.60;99.90
2603;DHT22;1311;47.966;7.958;2023-04-30T00:44:15;11.50;99.90
2603;DHT22;1311;47.966;7.958;2023-04-30T00:46:42;11.50;99.90
2603;DHT22;1311;47.966;7.958;2023-04-30T00:49:10;11.50;99.90
2603;DHT22;1311;47.966;7.958;2023-04-30T00:51:39;11.50;99.90
2603;DHT22;1311;47.966;7.958;2023-04-30T00:54:07;11.50;99.90
2603;DHT22;1311;47.966;7.958;2023-04-30T00:56:34;11.50;99.90
2603;DHT22;1311;47.966;7.958;2023-04-30T00:59:01;11.50;99.90
2603;DHT22;1311;47.966;7.958;2023-04-30T01:01:28;11.50;99.90
2603;DHT22;1311;47.966;7.958;2023-04-30T01:03:55;11.50;99.90
2603;DHT22;1311;47.966;7.958;2023-04-30T01:06:24;11.50;99.90
2603;DHT22;1311;47.966;7.958;2023-04-30T01:08:52;11.50;99.90
2603;DHT22;1311;47.966;7.958;2023-04-30T01:11:25;11.50;99.90
2603;DHT22;1311;47.966;7.958;2023-04-30T01:14:01;11.50;99.90
2603;DHT22;1311;47.966;7.958;2023-04-30T01:16:34;11.40;99.90
2603;DHT22;1311;47.966;7.958;2023-04-30T01:19:08;11.40;99.90
2603;DHT22;1311;47.966;7.958;2023-04-30T01:21:38;11.40;99.90
2603;DHT22;1311;47.966;7.958;2023-04-30T01:24:23;11.30;99.90
2603;DHT22;1311;47.966;7.958;2023-04-30T01:27:03;11.30;99.90
2603;DHT22;1311;47.966;7.958;2023-04-30T01:29:34;11.40;99.90
2603;DHT22;1311;47.966;7.958;2023-04-30T01:32:01;11.40;99.90
2603;DHT22;1311;47.966;7.958;2023-04-30T01:34:28;11.40;99.90
2603;DHT22;1311;47.966;7.958;2023-04-30T01:37:09;11.40;99.90
2603;DHT22;1311;47.966;7.958;2023-04-30T01:39:54;11.30;99.90
2603;DHT22;1311;47.966;7.958;2023-04-30T01:42:29;11.30;99.90
2603;DHT22;1311;47.966;7.958;2023-04-30T01:47:51;11.30;99.90
2603;DHT22;1311;47.966;7.958;2023-04-30T01:50:32;11.30;99.90
2603;DHT22;1311;47.966;7.958;2023-04-30T01:53:06;11.30;99.90
2603;DHT22;1311;47.966;7.958;2023-04-30T01:55:36;11.20;99.90
2603;DHT22;1311;47.966;7.958;2023-04-30T01:58:06;11.20;99.90
2603;DHT22;1311;47.966;7.958;2023-04-30T02:00:36;11.10;99.90
2603;DHT22;1311;47.966;7.958;2023-04-30T02:03:03;11.00;99.90
2603;DHT22;1311;47.966;7.958;2023-04-30T02:05:30;10.90;99.90
2603;DHT22;1311;47.966;7.958;2023-04-30T02:07:56;10.90;99.90
2603;DHT22;1311;47.966;7.958;2023-04-30T02:10:25;10.90;99.90
2603;DHT22;1311;47.966;7.958;2023-04-30T02:12:52;10.90;99.90
2603;DHT22;1311;47.966;7.958;2023-04-30T02:15:19;10.90;99.90
2603;DHT22;1311;47.966;7.958;2023-04-30T02:17:47;10.90;99.90
2603;DHT22;1311;47.966;7.958;2023-04-30T02:20:14;10.90;99.90
2603;DHT22;1311;47.966;7.958;2023-04-30T02:22:41;10.90;99.90
2603;DHT22;1311;47.966;7.958;2023-04-30T02:25:08;10.90;99.90
2603;DHT22;1311;47.966;7.958;2023-04-30T02:27:37;10.90;99.90
2603;DHT22;1311;47.966;7.958;2023-04-30T02:30:05;10.90;99.90
2603;DHT22;1311;47.966;7.958;2023-04-30T02:32:31;11.00;99.90
2603;DHT22;1311;47.966;7.958;2023-04-30T02:35:00;11.00;99.90
2603;DHT22;1311;47.966;7.958;2023-04-30T02:37:26;11.10;99.90
2603;DHT22;1311;47.966;7.958;2023-04-30T02:39:53;11.10;99.90
2603;DHT22;1311;47.966;7.958;2023-04-30T02:42:20;11.10;99.90
2603;DHT22;1311;47.966;7.958;2023-04-30T02:44:47;11.10;99.90
2603;DHT22;1311;47.966;7.958;2023-04-30T02:47:13;11.10;99.90
2603;DHT22;1311;47.966;7.958;2023-04-30T02:49:40;11.10;99.90
2603;DHT22;1311;47.966;7.958;2023-04-30T02:52:08;11.20;99.90
2603;DHT22;1311;47.966;7.958;2023-04-30T02:54:35;11.10;99.90
2603;DHT22;1311;47.966;7.958;2023-04-30T02:57:02;11.20;99.90
2603;DHT22;1311;47.966;7.958;2023-04-30T02:59:29;11.20;99.90
2603;DHT22;1311;47.966;7.958;2023-04-30T03:01:56;11.20;99.90
2603;DHT22;1311;47.966;7.958;2023-04-30T03:04:22;11.10;99.90
2603;DHT22;1311;47.966;7.958;2023-04-30T03:06:49;11.20;99.90
2603;DHT22;1311;47.966;7.958;2023-04-30T03:09:17;11.10;99.90
2603;DHT22;1311;47.966;7.958;2023-04-30T03:11:44;11.20;99.90
2603;DHT22;1311;47.966;7.958;2023-04-30T03:14:11;11.30;99.90
2603;DHT22;1311;47.966;7.958;2023-04-30T03:16:37;11.30;99.90
2603;DHT22;1311;47.966;7.958;2023-04-30T03:19:04;11.30;99.90
2603;DHT22;1311;47.966;7.958;2023-04-30T03:21:31;11.30;99.90
2603;DHT22;1311;47.966;7.958;2023-04-30T03:23:58;11.20;99.90
2603;DHT22;1311;47.966;7.958;2023-04-30T03:26:26;11.20;99.90
2603;DHT22;1311;47.966;7.958;2023-04-30T03:28:53;11.20;99.90
2603;DHT22;1311;47.966;7.958;2023-04-30T03:31:20;11.20;99.90
2603;DHT22;1311;47.966;7.958;2023-04-30T03:33:47;11.20;99.90
2603;DHT22;1311;47.966;7.958;2023-04-30T03:36:14;11.10;99.90
2603;DHT22;1311;47.966;7.958;2023-04-30T03:38:40;11.20;99.90
2603;DHT22;1311;47.966;7.958;2023-04-30T03:41:07;11.20;99.90
2603;DHT22;1311;47.966;7.958;2023-04-30T03:43:35;11.20;99.90
2603;DHT22;1311;47.966;7.958;2023-04-30T03:46:03;11.10;99.90
2603;DHT22;1311;47.966;7.958;2023-04-30T03:48:29;11.10;99.90
2603;DHT22;1311;47.966;7.958;2023-04-30T03:50:56;11.10;99.90
2603;DHT22;1311;47.966;7.958;2023-04-30T03:53:23;11.20;99.90
2603;DHT22;1311;47.966;7.958;2023-04-30T03:55:51;11.20;99.90
2603;DHT22;1311;47.966;7.958;2023-04-30T03:58:19;11.20;99.90
2603;DHT22;1311;47.966;7.958;2023-04-30T04:00:47;11.20;99.90
2603;DHT22;1311;47.966;7.958;2023-04-30T04:03:14;11.20;99.90
2603;DHT22;1311;47.966;7.958;2023-04-30T04:05:41;11.20;99.90
2603;DHT22;1311;47.966;7.958;2023-04-30T04:08:08;11.20;99.90
2603;DHT22;1311;47.966;7.958;2023-04-30T04:10:35;11.20;99.90
2603;DHT22;1311;47.966;7.958;2023-04-30T04:13:02;11.20;99.90
2603;DHT22;1311;47.966;7.958;2023-04-30T04:15:29;11.20;99.90
2603;DHT22;1311;47.966;7.958;2023-04-30T04:17:57;11.20;99.90
2603;DHT22;1311;47.966;7.958;2023-04-30T04:20:24;11.30;99.90
2603;DHT22;1311;47.966;7.958;2023-04-30T04:22:51;11.30;99.90
2603;DHT22;1311;47.966;7.958;2023-04-30T04:25:18;11.40;99.90
2603;DHT22;1311;47.966;7.958;2023-04-30T04:27:49;11.40;99.90
2603;DHT22;1311;47.966;7.958;2023-04-30T04:30:16;11.40;99.90
2603;DHT22;1311;47.966;7.958;2023-04-30T04:32:43;11.50;99.90
2603;DHT22;1311;47.966;7.958;2023-04-30T04:35:15;11.50;99.90
2603;DHT22;1311;47.966;7.958;2023-04-30T04:37:42;11.50;99.90
2603;DHT22;1311;47.966;7.958;2023-04-30T04:40:09;11.50;99.90
2603;DHT22;1311;47.966;7.958;2023-04-30T04:42:36;11.60;99.90
2603;DHT22;1311;47.966;7.958;2023-04-30T04:45:04;11.70;99.90
2603;DHT22;1311;47.966;7.958;2023-04-30T04:47:32;11.70;99.90
2603;DHT22;1311;47.966;7.958;2023-04-30T04:49:59;11.80;99.90
2603;DHT22;1311;47.966;7.958;2023-04-30T04:52:27;11.80;99.90
2603;DHT22;1311;47.966;7.958;2023-04-30T04:54:54;11.80;99.90
2603;DHT22;1311;47.966;7.958;2023-04-30T04:57:21;11.80;99.90
2603;DHT22;1311;47.966;7.958;2023-04-30T04:59:47;11.90;99.90
2603;DHT22;1311;47.966;7.958;2023-04-30T05:02:14;12.10;99.90
2603;DHT22;1311;47.966;7.958;2023-04-30T05:04:41;12.20;99.90
2603;DHT22;1311;47.966;7.958;2023-04-30T05:07:08;12.30;99.90
2603;DHT22;1311;47.966;7.958;2023-04-30T05:09:36;12.40;99.90
2603;DHT22;1311;47.966;7.958;2023-04-30T05:12:04;12.40;99.90
2603;DHT22;1311;47.966;7.958;2023-04-30T05:14:30;12.50;99.90
2603;DHT22;1311;47.966;7.958;2023-04-30T05:16:57;12.50;99.90
2603;DHT22;1311;47.966;7.958;2023-04-30T05:19:24;12.60;99.90
2603;DHT22;1311;47.966;7.958;2023-04-30T05:21:51;12.70;99.90
2603;DHT22;1311;47.966;7.958;2023-04-30T05:24:18;12.70;99.90
2603;DHT22;1311;47.966;7.958;2023-04-30T05:26:46;12.70;99.90
2603;DHT22;1311;47.966;7.958;2023-04-30T05:29:12;12.70;99.90
2603;DHT22;1311;47.966;7.958;2023-04-30T05:31:39;12.90;99.90
2603;DHT22;1311;47.966;7.958;2023-04-30T05:34:06;13.20;99.90
2603;DHT22;1311;47.966;7.958;2023-04-30T05:36:33;13.90;99.90
2603;DHT22;1311;47.966;7.958;2023-04-30T05:39:00;14.40;99.90
2603;DHT22;1311;47.966;7.958;2023-04-30T05:41:27;14.50;99.90
2603;DHT22;1311;47.966;7.958;2023-04-30T05:43:55;15.00;99.90
2603;DHT22;1311;47.966;7.958;2023-04-30T05:46:21;16.10;99.90
2603;DHT22;1311;47.966;7.958;2023-04-30T05:48:48;16.90;99.90
2603;DHT22;1311;47.966;7.958;2023-04-30T05:51:15;17.90;99.90
2603;DHT22;1311;47.966;7.958;2023-04-30T05:53:42;18.90;99.90
2603;DHT22;1311;47.966;7.958;2023-04-30T05:56:08;18.60;99.90
2603;DHT22;1311;47.966;7.958;2023-04-30T05:58:37;17.60;1.00
2603;DHT22;1311;47.966;7.958;2023-04-30T06:01:05;17.40;1.00
2603;DHT22;1311;47.966;7.958;2023-04-30T06:03:35;17.80;1.00
2603;DHT22;1311;47.966;7.958;2023-04-30T06:06:03;17.20;99.90
2603;DHT22;1311;47.966;7.958;2023-04-30T06:08:29;17.30;99.90
2603;DHT22;1311;47.966;7.958;2023-04-30T06:10:56;17.00;24.60
2603;DHT22;1311;47.966;7.958;2023-04-30T06:13:23;16.70;99.90
2603;DHT22;1311;47.966;7.958;2023-04-30T06:15:50;16.60;99.90
2603;DHT22;1311;47.966;7.958;2023-04-30T06:18:18;16.40;99.90
2603;DHT22;1311;47.966;7.958;2023-04-30T06:20:45;16.00;99.90
2603;DHT22;1311;47.966;7.958;2023-04-30T06:23:12;15.80;1.00
2603;DHT22;1311;47.966;7.958;2023-04-30T06:25:38;15.50;1.00
2603;DHT22;1311;47.966;7.958;2023-04-30T06:28:05;15.70;1.00
2603;DHT22;1311;47.966;7.958;2023-04-30T06:30:35;15.60;1.00
2603;DHT22;1311;47.966;7.958;2023-04-30T06:33:02;15.60;1.00
2603;DHT22;1311;47.966;7.958;2023-04-30T06:35:30;15.50;1.00
2603;DHT22;1311;47.966;7.958;2023-04-30T06:37:57;15.40;1.00
2603;DHT22;1311;47.966;7.958;2023-04-30T06:40:24;15.50;1.00
2603;DHT22;1311;47.966;7.958;2023-04-30T06:42:50;15.30;1.00
2603;DHT22;1311;47.966;7.958;2023-04-30T06:45:19;15.30;1.00
2603;DHT22;1311;47.966;7.958;2023-04-30T06:47:45;15.30;1.00
2603;DHT22;1311;47.966;7.958;2023-04-30T06:50:12;15.10;1.00
2603;DHT22;1311;47.966;7.958;2023-04-30T06:52:41;15.20;1.00
2603;DHT22;1311;47.966;7.958;2023-04-30T06:55:10;15.10;1.00
2603;DHT22;1311;47.966;7.958;2023-04-30T06:57:37;15.00;1.00
2603;DHT22;1311;47.966;7.958;2023-04-30T07:00:05;15.10;1.00
2603;DHT22;1311;47.966;7.958;2023-04-30T07:02:33;15.10;1.00
2603;DHT22;1311;47.966;7.958;2023-04-30T07:05:00;15.00;1.00
2603;DHT22;1311;47.966;7.958;2023-04-30T07:07:27;14.90;1.00
2603;DHT22;1311;47.966;7.958;2023-04-30T07:09:55;14.70;1.00
2603;DHT22;1311;47.966;7.958;2023-04-30T07:12:22;14.90;1.00
2603;DHT22;1311;47.966;7.958;2023-04-30T07:14:48;15.10;1.00
2603;DHT22;1311;47.966;7.958;2023-04-30T07:17:15;15.20;1.00
2603;DHT22;1311;47.966;7.958;2023-04-30T07:19:42;15.10;1.00
2603;DHT22;1311;47.966;7.958;2023-04-30T07:22:09;15.50;1.00
2603;DHT22;1311;47.966;7.958;2023-04-30T07:24:35;15.20;1.00
2603;DHT22;1311;47.966;7.958;2023-04-30T07:27:04;15.10;1.00
2603;DHT22;1311;47.966;7.958;2023-04-30T07:29:32;15.20;1.00
2603;DHT22;1311;47.966;7.958;2023-04-30T07:31:58;15.20;1.00
2603;DHT22;1311;47.966;7.958;2023-04-30T07:34:25;15.30;1.00
2603;DHT22;1311;47.966;7.958;2023-04-30T07:36:52;15.30;1.00
2603;DHT22;1311;47.966;7.958;2023-04-30T07:39:19;15.40;1.00
2603;DHT22;1311;47.966;7.958;2023-04-30T07:41:45;15.60;1.00
2603;DHT22;1311;47.966;7.958;2023-04-30T07:44:13;15.70;1.00
2603;DHT22;1311;47.966;7.958;2023-04-30T07:46:41;15.80;1.00
2603;DHT22;1311;47.966;7.958;2023-04-30T07:49:08;15.90;1.00
2603;DHT22;1311;47.966;7.958;2023-04-30T07:51:34;16.10;1.00
2603;DHT22;1311;47.966;7.958;2023-04-30T07:54:01;16.10;1.00
2603;DHT22;1311;47.966;7.958;2023-04-30T07:56:28;15.80;1.00
2603;DHT22;1311;47.966;7.958;2023-04-30T07:58:55;15.70;1.00
2603;DHT22;1311;47.966;7.958;2023-04-30T08:01:23;16.20;1.00
2603;DHT22;1311;47.966;7.958;2023-04-30T08:03:50;16.10;1.00
2603;DHT22;1311;47.966;7.958;2023-04-30T08:06:17;16.00;1.00
2603;DHT22;1311;47.966;7.958;2023-04-30T08:08:44;15.80;99.90
2603;DHT22;1311;47.966;7.958;2023-04-30T08:11:11;15.60;1.00
2603;DHT22;1311;47.966;7.958;2023-04-30T08:13:38;15.70;1.00
2603;DHT22;1311;47.966;7.958;2023-04-30T08:16:05;15.70;1.00
2603;DHT22;1311;47.966;7.958;2023-04-30T08:18:33;15.90;1.00
2603;DHT22;1311;47.966;7.958;2023-04-30T08:21:00;16.00;99.90
2603;DHT22;1311;47.966;7.958;2023-04-30T08:23:26;16.20;99.90
2603;DHT22;1311;47.966;7.958;2023-04-30T08:25:53;16.20;99.90
2603;DHT22;1311;47.966;7.958;2023-04-30T08:28:20;16.30;96.90
2603;DHT22;1311;47.966;7.958;2023-04-30T08:30:47;16.40;12.60
2603;DHT22;1311;47.966;7.958;2023-04-30T08:33:14;16.50;1.00
2603;DHT22;1311;47.966;7.958;2023-04-30T08:35:42;16.70;1.00
2603;DHT22;1311;47.966;7.958;2023-04-30T08:38:08;16.40;99.90
2603;DHT22;1311;47.966;7.958;2023-04-30T08:40:35;16.50;1.00
2603;DHT22;1311;47.966;7.958;2023-04-30T08:43:04;16.50;99.90
2603;DHT22;1311;47.966;7.958;2023-04-30T08:45:32;16.60;99.90
2603;DHT22;1311;47.966;7.958;2023-04-30T08:47:59;16.70;99.90
2603;DHT22;1311;47.966;7.958;2023-04-30T08:50:27;16.80;35.30
2603;DHT22;1311;47.966;7.958;2023-04-30T08:52:56;16.90;1.00
2603;DHT22;1311;47.966;7.958;2023-04-30T08:55:24;16.90;1.00
2603;DHT22;1311;47.966;7.958;2023-04-30T08:57:52;17.00;99.90
2603;DHT22;1311;47.966;7.958;2023-04-30T09:00:18;16.90;99.90
2603;DHT22;1311;47.966;7.958;2023-04-30T09:02:46;16.90;99.90
2603;DHT22;1311;47.966;7.958;2023-04-30T09:05:14;17.20;99.90
2603;DHT22;1311;47.966;7.958;2023-04-30T09:07:42;17.00;46.10
2603;DHT22;1311;47.966;7.958;2023-04-30T09:10:15;17.30;38.40
2603;DHT22;1311;47.966;7.958;2023-04-30T09:12:42;17.40;1.00
2603;DHT22;1311;47.966;7.958;2023-04-30T09:15:10;17.60;1.00
2603;DHT22;1311;47.966;7.958;2023-04-30T09:17:38;17.60;1.00
2603;DHT22;1311;47.966;7.958;2023-04-30T09:20:08;18.10;1.00
2603;DHT22;1311;47.966;7.958;2023-04-30T09:22:37;18.00;99.90
2603;DHT22;1311;47.966;7.958;2023-04-30T09:25:06;18.00;99.90
2603;DHT22;1311;47.966;7.958;2023-04-30T09:27:34;18.00;1.00
2603;DHT22;1311;47.966;7.958;2023-04-30T09:30:02;18.40;1.00
2603;DHT22;1311;47.966;7.958;2023-04-30T09:32:30;18.60;1.00
2603;DHT22;1311;47.966;7.958;2023-04-30T09:34:57;19.00;1.00
2603;DHT22;1311;47.966;7.958;2023-04-30T09:37:34;19.10;1.00
2603;DHT22;1311;47.966;7.958;2023-04-30T09:40:01;18.90;99.90
2603;DHT22;1311;47.966;7.958;2023-04-30T09:42:29;18.80;99.90
2603;DHT22;1311;47.966;7.958;2023-04-30T09:44:57;18.80;99.90
2603;DHT22;1311;47.966;7.958;2023-04-30T09:47:28;19.00;99.90
2603;DHT22;1311;47.966;7.958;2023-04-30T09:49:58;19.40;99.90
2603;DHT22;1311;47.966;7.958;2023-04-30T09:52:25;19.00;34.50
2603;DHT22;1311;47.966;7.958;2023-04-30T09:54:52;19.30;99.90
2603;DHT22;1311;47.966;7.958;2023-04-30T09:57:21;18.90;99.90
2603;DHT22;1311;47.966;7.958;2023-04-30T09:59:51;19.10;99.90
2603;DHT22;1311;47.966;7.958;2023-04-30T10:02:20;19.20;30.10
2603;DHT22;1311;47.966;7.958;2023-04-30T10:04:54;19.00;21.20
2603;DHT22;1311;47.966;7.958;2023-04-30T10:07:24;19.10;1.00
2603;DHT22;1311;47.966;7.958;2023-04-30T10:09:56;19.20;1.00
2603;DHT22;1311;47.966;7.958;2023-04-30T10:12:28;18.90;1.00
2603;DHT22;1311;47.966;7.958;2023-04-30T10:15:04;18.90;1.00
2603;DHT22;1311;47.966;7.958;2023-04-30T10:17:34;18.70;1.00
2603;DHT22;1311;47.966;7.958;2023-04-30T10:20:08;18.60;1.00
2603;DHT22;1311;47.966;7.958;2023-04-30T10:22:35;18.60;1.00
2603;DHT22;1311;47.966;7.958;2023-04-30T10:25:02;18.60;1.00
2603;DHT22;1311;47.966;7.958;2023-04-30T10:27:29;18.60;1.00
2603;DHT22;1311;47.966;7.958;2023-04-30T10:29:58;18.50;1.00
2603;DHT22;1311;47.966;7.958;2023-04-30T10:32:31;18.50;1.00
2603;DHT22;1311;47.966;7.958;2023-04-30T10:35:08;18.80;1.00
2603;DHT22;1311;47.966;7.958;2023-04-30T10:37:43;18.80;1.00
2603;DHT22;1311;47.966;7.958;2023-04-30T10:40:12;18.80;1.00
2603;DHT22;1311;47.966;7.958;2023-04-30T10:42:44;18.90;1.00
2603;DHT22;1311;47.966;7.958;2023-04-30T10:45:11;19.20;1.00
2603;DHT22;1311;47.966;7.958;2023-04-30T10:47:41;19.40;1.00
2603;DHT22;1311;47.966;7.958;2023-04-30T10:50:11;19.40;1.00
2603;DHT22;1311;47.966;7.958;2023-04-30T10:52:39;19.00;1.00
2603;DHT22;1311;47.966;7.958;2023-04-30T10:55:07;18.90;1.00
2603;DHT22;1311;47.966;7.958;2023-04-30T10:57:40;18.80;1.00
2603;DHT22;1311;47.966;7.958;2023-04-30T11:00:23;18.80;1.00
2603;DHT22;1311;47.966;7.958;2023-04-30T11:02:56;19.20;1.00
2603;DHT22;1311;47.966;7.958;2023-04-30T11:05:34;19.70;1.00
2603;DHT22;1311;47.966;7.958;2023-04-30T11:08:02;19.50;1.00
2603;DHT22;1311;47.966;7.958;2023-04-30T11:10:32;19.70;1.00
2603;DHT22;1311;47.966;7.958;2023-04-30T11:13:03;19.80;1.00
2603;DHT22;1311;47.966;7.958;2023-04-30T11:15:33;19.80;1.00
2603;DHT22;1311;47.966;7.958;2023-04-30T11:18:01;19.50;99.90
2603;DHT22;1311;47.966;7.958;2023-04-30T11:20:28;19.70;99.90
2603;DHT22;1311;47.966;7.958;2023-04-30T11:23:09;19.70;99.90
2603;DHT22;1311;47.966;7.958;2023-04-30T11:25:40;19.40;99.90
2603;DHT22;1311;47.966;7.958;2023-04-30T11:28:10;19.60;99.90
2603;DHT22;1311;47.966;7.958;2023-04-30T11:30:38;19.70;99.90
2603;DHT22;1311;47.966;7.958;2023-04-30T11:33:05;19.70;99.90
2603;DHT22;1311;47.966;7.958;2023-04-30T11:35:33;19.20;99.90
2603;DHT22;1311;47.966;7.958;2023-04-30T11:38:01;19.00;99.90
2603;DHT22;1311;47.966;7.958;2023-04-30T11:40:34;18.70;99.90
2603;DHT22;1311;47.966;7.958;2023-04-30T11:43:01;18.90;1.00
2603;DHT22;1311;47.966;7.958;2023-04-30T11:45:28;19.40;1.00
2603;DHT22;1311;47.966;7.958;2023-04-30T11:47:56;19.40;1.00
2603;DHT22;1311;47.966;7.958;2023-04-30T11:50:24;19.30;99.90
2603;DHT22;1311;47.966;7.958;2023-04-30T11:52:54;19.20;99.90
2603;DHT22;1311;47.966;7.958;2023-04-30T11:55:22;19.20;99.90
2603;DHT22;1311;47.966;7.958;2023-04-30T11:57:52;19.10;99.90
2603;DHT22;1311;47.966;7.958;2023-04-30T12:00:23;19.10;99.90
2603;DHT22;1311;47.966;7.958;2023-04-30T12:02:51;19.40;1.00
2603;DHT22;1311;47.966;7.958;2023-04-30T12:05:19;19.50;1.00
2603;DHT22;1311;47.966;7.958;2023-04-30T12:07:47;19.40;99.90
2603;DHT22;1311;47.966;7.958;2023-04-30T12:10:15;19.30;99.90
2603;DHT22;1311;47.966;7.958;2023-04-30T12:12:42;19.50;99.90
2603;DHT22;1311;47.966;7.958;2023-04-30T12:15:13;19.30;99.90
2603;DHT22;1311;47.966;7.958;2023-04-30T12:17:40;19.10;99.90
2603;DHT22;1311;47.966;7.958;2023-04-30T12:20:08;19.20;99.90
2603;DHT22;1311;47.966;7.958;2023-04-30T12:22:36;19.10;99.90
2603;DHT22;1311;47.966;7.958;2023-04-30T12:25:06;19.60;99.90
2603;DHT22;1311;47.966;7.958;2023-04-30T12:27:34;19.70;99.90
2603;DHT22;1311;47.966;7.958;2023-04-30T12:30:06;19.50;99.90
2603;DHT22;1311;47.966;7.958;2023-04-30T12:32:39;19.90;99.90
2603;DHT22;1311;47.966;7.958;2023-04-30T12:35:07;19.70;99.90
2603;DHT22;1311;47.966;7.958;2023-04-30T12:37:34;19.60;99.90
2603;DHT22;1311;47.966;7.958;2023-04-30T12:40:01;19.40;99.90
2603;DHT22;1311;47.966;7.958;2023-04-30T12:42:31;19.20;99.90
2603;DHT22;1311;47.966;7.958;2023-04-30T12:44:59;19.30;99.90
2603;DHT22;1311;47.966;7.958;2023-04-30T12:47:26;19.40;99.90
2603;DHT22;1311;47.966;7.958;2023-04-30T12:49:54;19.70;99.90
2603;DHT22;1311;47.966;7.958;2023-04-30T12:52:23;19.50;99.90
2603;DHT22;1311;47.966;7.958;2023-04-30T12:54:51;19.20;99.90
2603;DHT22;1311;47.966;7.958;2023-04-30T12:57:19;19.60;99.90
2603;DHT22;1311;47.966;7.958;2023-04-30T12:59:56;19.50;99.90
2603;DHT22;1311;47.966;7.958;2023-04-30T13:02:25;19.60;99.90
2603;DHT22;1311;47.966;7.958;2023-04-30T13:04:54;19.70;99.90
2603;DHT22;1311;47.966;7.958;2023-04-30T13:07:21;19.70;99.90
2603;DHT22;1311;47.966;7.958;2023-04-30T13:09:48;19.70;99.90
2603;DHT22;1311;47.966;7.958;2023-04-30T13:12:15;19.40;99.90
2603;DHT22;1311;47.966;7.958;2023-04-30T13:14:41;19.30;99.90
2603;DHT22;1311;47.966;7.958;2023-04-30T13:17:08;19.10;99.90
2603;DHT22;1311;47.966;7.958;2023-04-30T13:19:38;19.40;99.90
2603;DHT22;1311;47.966;7.958;2023-04-30T13:22:06;19.30;99.90
2603;DHT22;1311;47.966;7.958;2023-04-30T13:24:33;19.10;99.90
2603;DHT22;1311;47.966;7.958;2023-04-30T13:27:00;19.00;99.90
2603;DHT22;1311;47.966;7.958;2023-04-30T13:29:27;19.20;99.90
2603;DHT22;1311;47.966;7.958;2023-04-30T13:31:53;19.30;99.90
2603;DHT22;1311;47.966;7.958;2023-04-30T13:34:20;19.30;99.90
2603;DHT22;1311;47.966;7.958;2023-04-30T13:36:47;19.40;99.90
2603;DHT22;1311;47.966;7.958;2023-04-30T13:39:15;19.40;99.90
2603;DHT22;1311;47.966;7.958;2023-04-30T13:41:42;19.30;99.90
2603;DHT22;1311;47.966;7.958;2023-04-30T13:44:09;19.00;99.90
2603;DHT22;1311;47.966;7.958;2023-04-30T13:46:37;18.80;99.90
2603;DHT22;1311;47.966;7.958;2023-04-30T13:49:03;18.70;99.90
2603;DHT22;1311;47.966;7.958;2023-04-30T13:51:30;18.70;99.90
2603;DHT22;1311;47.966;7.958;2023-04-30T13:53:57;18.60;99.90
2603;DHT22;1311;47.966;7.958;2023-04-30T13:56:25;18.70;99.90
2603;DHT22;1311;47.966;7.958;2023-04-30T13:58:52;18.60;99.90
2603;DHT22;1311;47.966;7.958;2023-04-30T14:01:19;18.70;99.90
2603;DHT22;1311;47.966;7.958;2023-04-30T14:03:45;18.60;99.90
2603;DHT22;1311;47.966;7.958;2023-04-30T14:06:12;18.40;99.90
2603;DHT22;1311;47.966;7.958;2023-04-30T14:08:39;18.50;99.90
2603;DHT22;1311;47.966;7.958;2023-04-30T14:11:06;18.70;99.90
2603;DHT22;1311;47.966;7.958;2023-04-30T14:13:34;18.60;99.90
2603;DHT22;1311;47.966;7.958;2023-04-30T14:16:05;18.60;99.90
2603;DHT22;1311;47.966;7.958;2023-04-30T14:18:32;18.70;99.90
2603;DHT22;1311;47.966;7.958;2023-04-30T14:20:59;18.90;99.90
2603;DHT22;1311;47.966;7.958;2023-04-30T14:23:25;18.90;99.90
2603;DHT22;1311;47.966;7.958;2023-04-30T14:25:53;19.20;99.90
2603;DHT22;1311;47.966;7.958;2023-04-30T14:28:20;19.20;99.90
2603;DHT22;1311;47.966;7.958;2023-04-30T14:30:48;19.30;99.90
2603;DHT22;1311;47.966;7.958;2023-04-30T14:33:15;19.60;99.90
2603;DHT22;1311;47.966;7.958;2023-04-30T14:35:41;19.40;99.90
2603;DHT22;1311;47.966;7.958;2023-04-30T14:38:09;19.20;99.90
2603;DHT22;1311;47.966;7.958;2023-04-30T14:40:36;19.30;99.90
2603;DHT22;1311;47.966;7.958;2023-04-30T14:43:03;19.00;99.90
2603;DHT22;1311;47.966;7.958;2023-04-30T14:45:31;19.20;99.90
2603;DHT22;1311;47.966;7.958;2023-04-30T14:47:59;19.40;99.90
2603;DHT22;1311;47.966;7.958;2023-04-30T14:50:27;19.30;99.90
2603;DHT22;1311;47.966;7.958;2023-04-30T14:52:53;19.40;99.90
2603;DHT22;1311;47.966;7.958;2023-04-30T14:55:20;19.30;99.90
2603;DHT22;1311;47.966;7.958;2023-04-30T14:57:47;19.30;99.90
2603;DHT22;1311;47.966;7.958;2023-04-30T15:00:15;19.10;99.90
2603;DHT22;1311;47.966;7.958;2023-04-30T15:02:42;18.80;99.90
2603;DHT22;1311;47.966;7.958;2023-04-30T15:05:10;18.80;99.90
2603;DHT22;1311;47.966;7.958;2023-04-30T15:07:37;18.60;99.90
2603;DHT22;1311;47.966;7.958;2023-04-30T15:10:05;18.70;99.90
2603;DHT22;1311;47.966;7.958;2023-04-30T15:12:32;18.70;99.90
2603;DHT22;1311;47.966;7.958;2023-04-30T15:15:00;18.70;99.90
2603;DHT22;1311;47.966;7.958;2023-04-30T15:17:26;18.60;99.90
2603;DHT22;1311;47.966;7.958;2023-04-30T15:19:53;18.80;99.90
2603;DHT22;1311;47.966;7.958;2023-04-30T15:22:22;18.70;99.90
2603;DHT22;1311;47.966;7.958;2023-04-30T15:24:49;18.80;99.90
2603;DHT22;1311;47.966;7.958;2023-04-30T15:27:16;18.60;99.90
2603;DHT22;1311;47.966;7.958;2023-04-30T15:29:43;18.80;99.90
2603;DHT22;1311;47.966;7.958;2023-04-30T15:32:11;18.70;99.90
2603;DHT22;1311;47.966;7.958;2023-04-30T15:34:37;18.60;99.90
2603;DHT22;1311;47.966;7.958;2023-04-30T15:37:04;18.60;99.90
2603;DHT22;1311;47.966;7.958;2023-04-30T15:39:32;18.60;99.90
2603;DHT22;1311;47.966;7.958;2023-04-30T15:42:00;18.60;99.90
2603;DHT22;1311;47.966;7.958;2023-04-30T15:44:27;18.70;99.90
2603;DHT22;1311;47.966;7.958;2023-04-30T15:46:54;18.80;99.90
2603;DHT22;1311;47.966;7.958;2023-04-30T15:49:21;18.80;99.90
2603;DHT22;1311;47.966;7.958;2023-04-30T15:51:50;18.80;99.90
2603;DHT22;1311;47.966;7.958;2023-04-30T15:54:16;18.80;99.90
2603;DHT22;1311;47.966;7.958;2023-04-30T15:56:45;18.70;99.90
2603;DHT22;1311;47.966;7.958;2023-04-30T15:59:12;18.70;99.90
2603;DHT22;1311;47.966;7.958;2023-04-30T16:01:40;18.70;99.90
2603;DHT22;1311;47.966;7.958;2023-04-30T16:04:08;18.50;99.90
2603;DHT22;1311;47.966;7.958;2023-04-30T16:06:35;18.30;99.90
2603;DHT22;1311;47.966;7.958;2023-04-30T16:09:02;18.50;99.90
2603;DHT22;1311;47.966;7.958;2023-04-30T16:11:31;18.40;99.90